createdAt,value
2022-11-24T00:00:25.430Z,2.4
2022-11-24T00:01:28.079Z,2.4
2022-11-24T00:02:32.202Z,2.4
2022-11-24T00:03:35.603Z,2.4
2022-11-24T00:04:39.600Z,2.4
2022-11-24T00:05:42.777Z,2.3
2022-11-24T00:06:46.234Z,2.4
2022-11-24T00:07:49.180Z,2.4
2022-11-24T00:08:52.128Z,2.3
2022-11-24T00:09:55.373Z,2.3
2022-11-24T00:10:58.047Z,2.3
2022-11-24T00:12:01.232Z,2.3
2022-11-24T00:13:05.534Z,2.3
2022-11-24T00:14:08.974Z,2.3
2022-11-24T00:15:11.296Z,2.3
2022-11-24T00:16:15.135Z,2.3
2022-11-24T00:17:18.737Z,2.3
2022-11-24T00:18:21.329Z,2.2
2022-11-24T00:19:24.511Z,2.2
2022-11-24T00:20:26.946Z,2.2
2022-11-24T00:21:30.226Z,2.2
2022-11-24T00:22:33.134Z,2.2
2022-11-24T00:23:36.671Z,2.2
2022-11-24T00:24:39.272Z,2.2
2022-11-24T00:25:41.795Z,2.2
2022-11-24T00:26:45.596Z,2.3
2022-11-24T00:27:49.126Z,2.3
2022-11-24T00:28:53.348Z,2.3
2022-11-24T00:29:56.880Z,2.2
2022-11-24T00:31:00.505Z,2.2
2022-11-24T00:32:04.075Z,2.2
2022-11-24T00:33:07.333Z,2.2
2022-11-24T00:34:09.939Z,2.2
2022-11-24T00:35:13.662Z,2.2
2022-11-24T00:36:17.419Z,2.1
2022-11-24T00:37:21.170Z,2.1
2022-11-24T00:38:24.216Z,2.2
2022-11-24T00:39:26.903Z,2.2
2022-11-24T00:40:36.472Z,2.2
2022-11-24T00:41:39.782Z,2.2
2022-11-24T00:42:42.953Z,2.2
2022-11-24T00:43:46.190Z,2.1
2022-11-24T00:44:50.181Z,2.1
2022-11-24T00:45:54.070Z,2.2
2022-11-24T00:46:57.775Z,2.1
2022-11-24T00:48:01.078Z,2.2
2022-11-24T00:49:04.811Z,2.2
2022-11-24T00:50:07.982Z,2.2
2022-11-24T00:51:11.310Z,2.1
2022-11-24T00:52:14.364Z,2.2
2022-11-24T00:53:17.255Z,2.1
2022-11-24T00:54:20.238Z,2.1
2022-11-24T00:55:23.497Z,2.2
2022-11-24T00:56:26.411Z,2.1
2022-11-24T00:57:29.483Z,2.2
2022-11-24T00:58:32.487Z,2.2
2022-11-24T00:59:35.505Z,2.2
2022-11-24T01:00:39.151Z,2.2
2022-11-24T01:01:42.609Z,2.1
2022-11-24T01:02:45.771Z,2.1
2022-11-24T01:03:49.262Z,2.1
2022-11-24T01:04:52.261Z,2.1
2022-11-24T01:05:55.114Z,2.1
2022-11-24T01:06:58.316Z,2.1
2022-11-24T01:08:01.739Z,2.1
2022-11-24T01:09:05.129Z,2.2
2022-11-24T01:10:08.311Z,2.2
2022-11-24T01:11:11.770Z,2.2
2022-11-24T01:12:15.054Z,2.1
2022-11-24T01:13:17.288Z,2.2
2022-11-24T01:14:20.586Z,2.1
2022-11-24T01:15:23.541Z,2.2
2022-11-24T01:16:27.853Z,2.2
2022-11-24T01:17:31.170Z,2.2
2022-11-24T01:18:33.962Z,2.2
2022-11-24T01:19:36.762Z,2.2
2022-11-24T01:20:40.162Z,2.2
2022-11-24T01:21:43.308Z,2.1
2022-11-24T01:22:46.205Z,2.2
2022-11-24T01:23:48.706Z,2.1
2022-11-24T01:24:52.133Z,2.1
2022-11-24T01:25:54.266Z,2.1
2022-11-24T01:26:57.688Z,2.1
2022-11-24T01:28:00.481Z,2.1
2022-11-24T01:29:03.597Z,2.2
2022-11-24T01:30:07.108Z,2.2
2022-11-24T01:31:11.236Z,2.1
2022-11-24T01:32:15.033Z,2.1
2022-11-24T01:33:18.393Z,2.1
2022-11-24T01:34:21.259Z,2.1
2022-11-24T01:35:23.504Z,2.1
2022-11-24T01:36:27.030Z,2.1
2022-11-24T01:37:30.389Z,2.1
2022-11-24T01:38:33.632Z,2.1
2022-11-24T01:39:36.431Z,2.1
2022-11-24T01:40:39.223Z,2.1
2022-11-24T01:41:42.746Z,2.1
2022-11-24T01:42:45.905Z,2.1
2022-11-24T01:43:48.596Z,2.1
2022-11-24T01:44:50.926Z,2.1
2022-11-24T01:45:54.856Z,2.1
2022-11-24T01:46:58.081Z,2
2022-11-24T01:48:02.668Z,2.1
2022-11-24T01:49:05.652Z,2.1
2022-11-24T01:50:08.541Z,2.1
2022-11-24T01:51:11.350Z,2.1
2022-11-24T01:52:14.682Z,2.1
2022-11-24T01:53:17.216Z,2.1
2022-11-24T01:54:19.806Z,2.1
2022-11-24T01:55:22.872Z,2.1
2022-11-24T01:56:25.885Z,2.1
2022-11-24T01:57:28.734Z,2.1
2022-11-24T01:58:31.644Z,2.1
2022-11-24T01:59:34.801Z,2.1
2022-11-24T02:00:37.676Z,2.1
2022-11-24T02:01:41.053Z,2.1
2022-11-24T02:02:45.302Z,2.1
2022-11-24T02:03:49.336Z,2.1
2022-11-24T02:04:52.633Z,2.1
2022-11-24T02:05:55.750Z,2.1
2022-11-24T02:06:59.020Z,2
2022-11-24T02:08:01.815Z,2
2022-11-24T02:09:04.656Z,2
2022-11-24T02:10:07.986Z,2
2022-11-24T02:11:11.450Z,2
2022-11-24T02:12:14.667Z,2
2022-11-24T02:13:17.844Z,2
2022-11-24T02:14:21.021Z,2
2022-11-24T02:15:24.089Z,2
2022-11-24T02:16:27.501Z,2
2022-11-24T02:17:30.418Z,2
2022-11-24T02:18:33.177Z,2
2022-11-24T02:19:37.399Z,2
2022-11-24T02:20:40.281Z,2
2022-11-24T02:21:44.046Z,2
2022-11-24T02:22:46.912Z,2
2022-11-24T02:23:50.726Z,2
2022-11-24T02:24:53.458Z,2
2022-11-24T02:25:56.628Z,2
2022-11-24T02:26:59.892Z,2
2022-11-24T02:28:02.887Z,2
2022-11-24T02:29:06.104Z,2
2022-11-24T02:30:08.810Z,2.1
2022-11-24T02:31:12.367Z,2
2022-11-24T02:32:15.447Z,2
2022-11-24T02:33:18.384Z,2
2022-11-24T02:34:21.515Z,2
2022-11-24T02:35:25.479Z,2
2022-11-24T02:36:28.001Z,2
2022-11-24T02:37:31.101Z,2
2022-11-24T02:38:34.556Z,2
2022-11-24T02:39:38.257Z,2
2022-11-24T02:40:41.415Z,2
2022-11-24T02:41:44.215Z,2
2022-11-24T02:42:46.936Z,2
2022-11-24T02:43:49.751Z,2
2022-11-24T02:44:52.550Z,2
2022-11-24T02:45:55.421Z,2.1
2022-11-24T02:46:58.300Z,2
2022-11-24T02:48:00.998Z,2
2022-11-24T02:49:03.831Z,2
2022-11-24T02:50:06.692Z,2
2022-11-24T02:51:10.866Z,2
2022-11-24T02:52:13.713Z,2
2022-11-24T02:53:16.408Z,2
2022-11-24T02:54:18.713Z,2.1
2022-11-24T02:55:21.593Z,2.1
2022-11-24T02:56:24.461Z,2
2022-11-24T02:57:27.614Z,2
2022-11-24T02:58:30.796Z,2
2022-11-24T02:59:33.792Z,2
2022-11-24T03:00:36.695Z,2.1
2022-11-24T03:01:40.811Z,2
2022-11-24T03:02:43.573Z,2.1
2022-11-24T03:03:46.972Z,2.1
2022-11-24T03:04:49.922Z,2.1
2022-11-24T03:05:53.171Z,2
2022-11-24T03:06:57.144Z,2.1
2022-11-24T03:07:59.735Z,2
2022-11-24T03:09:02.900Z,2
2022-11-24T03:10:06.320Z,2
2022-11-24T03:11:08.918Z,2.1
2022-11-24T03:12:12.440Z,2.1
2022-11-24T03:13:16.202Z,2
2022-11-24T03:14:18.917Z,2
2022-11-24T03:15:22.361Z,2
2022-11-24T03:16:26.141Z,2
2022-11-24T03:17:28.672Z,2
2022-11-24T03:18:31.486Z,2
2022-11-24T03:19:33.925Z,2
2022-11-24T03:20:36.649Z,2
2022-11-24T03:21:39.922Z,2
2022-11-24T03:22:43.816Z,2
2022-11-24T03:23:46.255Z,2
2022-11-24T03:24:50.058Z,2
2022-11-24T03:25:53.539Z,2
2022-11-24T03:26:56.334Z,2
2022-11-24T03:27:59.255Z,2
2022-11-24T03:29:01.494Z,2
2022-11-24T03:30:04.724Z,2
2022-11-24T03:31:08.138Z,2
2022-11-24T03:32:11.370Z,2
2022-11-24T03:33:13.465Z,2
2022-11-24T03:34:16.680Z,2
2022-11-24T03:35:19.835Z,2
2022-11-24T03:36:22.509Z,2
2022-11-24T03:37:26.092Z,2
2022-11-24T03:38:30.301Z,2
2022-11-24T03:39:33.458Z,2
2022-11-24T03:40:36.400Z,2
2022-11-24T03:41:38.965Z,2
2022-11-24T03:42:42.165Z,2.1
2022-11-24T03:43:46.015Z,2.1
2022-11-24T03:44:48.526Z,2.1
2022-11-24T03:45:51.895Z,2.1
2022-11-24T03:46:54.510Z,2
2022-11-24T03:47:57.412Z,2.1
2022-11-24T03:49:00.953Z,2
2022-11-24T03:50:04.196Z,2
2022-11-24T03:51:07.469Z,2
2022-11-24T03:52:10.767Z,2
2022-11-24T03:53:14.014Z,2
2022-11-24T03:54:17.982Z,2.1
2022-11-24T03:55:21.334Z,2.1
2022-11-24T03:56:24.045Z,2.1
2022-11-24T03:57:27.326Z,2
2022-11-24T03:58:30.622Z,2
2022-11-24T03:59:33.066Z,2.1
2022-11-24T04:00:36.652Z,2
2022-11-24T04:01:39.410Z,2.1
2022-11-24T04:02:42.845Z,2
2022-11-24T04:03:45.747Z,2
2022-11-24T04:04:51.488Z,2
2022-11-24T04:05:54.715Z,2
2022-11-24T04:06:58.066Z,2
2022-11-24T04:08:01.249Z,2
2022-11-24T04:09:04.315Z,2
2022-11-24T04:10:07.933Z,2.1
2022-11-24T04:11:10.863Z,2
2022-11-24T04:12:13.678Z,2
2022-11-24T04:13:17.516Z,2
2022-11-24T04:14:20.645Z,2
2022-11-24T04:15:23.791Z,2
2022-11-24T04:16:26.912Z,2
2022-11-24T04:17:29.379Z,2
2022-11-24T04:18:32.368Z,2
2022-11-24T04:19:36.103Z,2
2022-11-24T04:20:38.953Z,2
2022-11-24T04:21:42.183Z,2
2022-11-24T04:22:45.461Z,2
2022-11-24T04:23:48.249Z,1.9
2022-11-24T04:24:51.582Z,1.9
2022-11-24T04:25:55.435Z,1.9
2022-11-24T04:26:58.286Z,1.9
2022-11-24T04:28:00.894Z,1.9
2022-11-24T04:29:04.407Z,1.9
2022-11-24T04:30:07.216Z,1.9
2022-11-24T04:31:10.384Z,1.9
2022-11-24T04:32:12.558Z,1.9
2022-11-24T04:33:16.010Z,1.9
2022-11-24T04:34:19.473Z,1.9
2022-11-24T04:35:22.214Z,2
2022-11-24T04:36:25.110Z,2
2022-11-24T04:37:28.686Z,2
2022-11-24T04:39:31.301Z,1.9
2022-11-24T04:40:35.125Z,2
2022-11-24T04:41:39.308Z,1.9
2022-11-24T04:42:41.550Z,1.9
2022-11-24T04:43:44.469Z,1.9
2022-11-24T04:44:47.542Z,1.9
2022-11-24T04:45:49.816Z,1.9
2022-11-24T04:46:52.915Z,1.9
2022-11-24T04:47:56.107Z,1.9
2022-11-24T04:48:59.342Z,2
2022-11-24T04:50:02.439Z,2
2022-11-24T04:51:05.846Z,2
2022-11-24T04:52:09.010Z,2
2022-11-24T04:53:12.081Z,2
2022-11-24T04:54:14.898Z,1.9
2022-11-24T04:55:18.179Z,1.9
2022-11-24T04:56:21.244Z,1.9
2022-11-24T04:57:25.220Z,1.9
2022-11-24T04:58:27.995Z,1.9
2022-11-24T04:59:30.678Z,2
2022-11-24T05:00:33.550Z,2
2022-11-24T05:01:37.288Z,2
2022-11-24T05:02:40.223Z,2
2022-11-24T05:03:42.823Z,2
2022-11-24T05:04:45.512Z,2
2022-11-24T05:05:48.385Z,2
2022-11-24T05:06:51.162Z,2
2022-11-24T05:07:54.117Z,1.9
2022-11-24T05:08:57.375Z,1.9
2022-11-24T05:10:00.922Z,2
2022-11-24T05:11:04.713Z,2
2022-11-24T05:12:08.223Z,1.9
2022-11-24T05:13:12.281Z,2
2022-11-24T05:14:15.605Z,2
2022-11-24T05:15:18.731Z,2
2022-11-24T05:16:22.213Z,2
2022-11-24T05:17:25.933Z,1.9
2022-11-24T05:18:28.152Z,2
2022-11-24T05:19:34.149Z,2
2022-11-24T05:20:37.377Z,2
2022-11-24T05:21:40.073Z,2
2022-11-24T05:22:42.850Z,2.1
2022-11-24T05:23:46.184Z,2.1
2022-11-24T05:24:48.954Z,2
2022-11-24T05:25:52.098Z,2
2022-11-24T05:26:55.520Z,2
2022-11-24T05:27:59.078Z,2.1
2022-11-24T05:29:02.833Z,2.1
2022-11-24T05:30:05.595Z,2
2022-11-24T05:31:08.638Z,2.1
2022-11-24T05:32:11.149Z,2
2022-11-24T05:33:13.846Z,2
2022-11-24T05:34:17.171Z,2
2022-11-24T05:35:19.411Z,2
2022-11-24T05:36:22.456Z,2
2022-11-24T05:37:25.028Z,2
2022-11-24T05:38:28.157Z,2
2022-11-24T05:39:30.533Z,2
2022-11-24T05:40:32.391Z,2
2022-11-24T05:41:36.100Z,2
2022-11-24T05:42:49.421Z,2.1
2022-11-24T05:43:52.477Z,2.1
2022-11-24T05:44:56.323Z,2
2022-11-24T05:45:59.760Z,2
2022-11-24T05:47:03.170Z,2.1
2022-11-24T05:48:06.395Z,2.1
2022-11-24T05:49:08.810Z,2.1
2022-11-24T05:50:11.854Z,2.1
2022-11-24T05:51:14.902Z,2.1
2022-11-24T05:52:17.680Z,2.1
2022-11-24T05:53:20.658Z,2.1
2022-11-24T05:54:23.696Z,2.1
2022-11-24T05:55:26.814Z,2.1
2022-11-24T05:56:30.523Z,2
2022-11-24T05:57:33.016Z,2.1
2022-11-24T05:58:36.445Z,2.2
2022-11-24T05:59:39.082Z,2.2
2022-11-24T06:00:43.132Z,2.1
2022-11-24T06:01:46.736Z,2.1
2022-11-24T06:02:50.573Z,2.1
2022-11-24T06:03:53.598Z,2.2
2022-11-24T06:04:56.368Z,2.2
2022-11-24T06:05:59.064Z,2.2
2022-11-24T06:07:01.736Z,2.2
2022-11-24T06:08:04.857Z,2.2
2022-11-24T06:09:07.973Z,2.2
2022-11-24T06:10:10.217Z,2.2
2022-11-24T06:11:13.616Z,2.2
2022-11-24T06:12:16.471Z,2.2
2022-11-24T06:13:19.943Z,2.2
2022-11-24T06:14:22.877Z,2.2
2022-11-24T06:15:26.002Z,2.2
2022-11-24T06:16:30.505Z,2.2
2022-11-24T06:17:33.436Z,2.2
2022-11-24T06:18:36.388Z,2.2
2022-11-24T06:19:43.673Z,2.2
2022-11-24T06:21:13.273Z,2.2
2022-11-24T06:22:16.594Z,2.2
2022-11-24T06:23:19.469Z,2.2
2022-11-24T06:24:22.178Z,2.2
2022-11-24T06:25:24.120Z,2.2
2022-11-24T06:26:27.161Z,2.3
2022-11-24T06:27:30.556Z,2.3
2022-11-24T06:28:34.215Z,2.3
2022-11-24T06:29:37.292Z,2.3
2022-11-24T06:30:40.751Z,2.3
2022-11-24T06:31:45.055Z,2.3
2022-11-24T06:32:51.456Z,2.3
2022-11-24T06:33:53.885Z,2.3
2022-11-24T06:34:56.485Z,2.2
2022-11-24T06:35:59.738Z,2.3
2022-11-24T06:37:02.507Z,2.3
2022-11-24T06:38:05.202Z,2.3
2022-11-24T06:39:07.815Z,2.3
2022-11-24T06:40:10.825Z,2.3
2022-11-24T06:41:13.596Z,2.3
2022-11-24T06:42:16.448Z,2.4
2022-11-24T06:43:19.212Z,2.4
2022-11-24T06:44:22.184Z,2.4
2022-11-24T06:45:25.874Z,2.4
2022-11-24T06:46:29.432Z,2.4
2022-11-24T06:47:32.633Z,2.4
2022-11-24T06:48:35.619Z,2.4
2022-11-24T06:49:38.118Z,2.4
2022-11-24T06:50:41.095Z,2.4
2022-11-24T06:51:43.313Z,2.3
2022-11-24T06:52:46.370Z,2.3
2022-11-24T06:53:49.217Z,2.3
2022-11-24T06:54:52.259Z,2.4
2022-11-24T06:55:55.030Z,2.4
2022-11-24T06:56:58.234Z,2.4
2022-11-24T06:58:01.370Z,2.4
2022-11-24T06:59:04.494Z,2.4
2022-11-24T07:00:07.764Z,2.4
2022-11-24T07:01:11.066Z,2.4
2022-11-24T07:02:14.334Z,2.5
2022-11-24T07:03:18.301Z,2.5
2022-11-24T07:04:21.013Z,2.5
2022-11-24T07:05:23.994Z,2.5
2022-11-24T07:06:26.417Z,2.5
2022-11-24T07:07:29.516Z,2.5
2022-11-24T07:08:32.687Z,2.5
2022-11-24T07:09:35.815Z,2.5
2022-11-24T07:10:38.861Z,2.4
2022-11-24T07:11:41.635Z,2.5
2022-11-24T07:12:44.886Z,2.5
2022-11-24T07:13:47.649Z,2.5
2022-11-24T07:14:50.078Z,2.5
2022-11-24T07:15:52.583Z,2.5
2022-11-24T07:16:56.000Z,2.5
2022-11-24T07:17:58.649Z,2.5
2022-11-24T07:19:02.782Z,2.5
2022-11-24T07:20:06.491Z,2.5
2022-11-24T07:21:09.620Z,2.5
2022-11-24T07:22:13.034Z,2.5
2022-11-24T07:23:16.093Z,2.5
2022-11-24T07:24:18.952Z,2.5
2022-11-24T07:25:21.947Z,2.5
2022-11-24T07:26:24.448Z,2.6
2022-11-24T07:27:27.443Z,2.6
2022-11-24T07:28:30.230Z,2.6
2022-11-24T07:29:33.369Z,2.6
2022-11-24T07:30:36.495Z,2.6
2022-11-24T07:31:39.958Z,2.6
2022-11-24T07:32:43.752Z,2.6
2022-11-24T07:33:47.305Z,2.6
2022-11-24T07:34:50.475Z,2.6
2022-11-24T07:35:53.601Z,2.6
2022-11-24T07:36:56.440Z,2.6
2022-11-24T07:37:59.914Z,2.6
2022-11-24T07:39:03.614Z,2.6
2022-11-24T07:40:06.049Z,2.6
2022-11-24T07:41:08.898Z,2.6
2022-11-24T07:42:11.664Z,2.6
2022-11-24T07:43:21.856Z,2.7
2022-11-24T07:44:25.785Z,2.6
2022-11-24T07:45:29.554Z,2.6
2022-11-24T07:46:32.497Z,2.6
2022-11-24T07:47:35.538Z,2.7
2022-11-24T07:48:38.355Z,2.7
2022-11-24T07:49:42.155Z,2.7
2022-11-24T07:50:47.129Z,2.7
2022-11-24T07:51:59.174Z,2.8
2022-11-24T07:53:01.753Z,2.8
2022-11-24T07:54:05.183Z,2.8
2022-11-24T07:55:07.962Z,2.8
2022-11-24T07:56:11.485Z,2.8
2022-11-24T07:57:14.540Z,2.8
2022-11-24T07:58:17.237Z,2.8
2022-11-24T07:59:20.488Z,2.8
2022-11-24T08:00:23.561Z,2.8
2022-11-24T08:01:27.305Z,2.8
2022-11-24T08:02:30.121Z,2.8
2022-11-24T08:03:33.885Z,2.8
2022-11-24T08:04:37.750Z,2.8
2022-11-24T08:06:46.003Z,2.9
2022-11-24T08:07:51.835Z,2.8
2022-11-24T08:08:55.069Z,2.8
2022-11-24T08:09:58.219Z,2.9
2022-11-24T08:11:01.135Z,2.8
2022-11-24T08:12:03.906Z,2.9
2022-11-24T08:13:07.313Z,2.9
2022-11-24T08:14:10.160Z,2.9
2022-11-24T08:15:13.524Z,2.9
2022-11-24T08:16:17.178Z,2.9
2022-11-24T08:17:19.825Z,2.9
2022-11-24T08:18:22.952Z,2.9
2022-11-24T08:19:26.633Z,2.9
2022-11-24T08:20:29.785Z,2.9
2022-11-24T08:21:32.788Z,2.9
2022-11-24T08:22:35.985Z,3
2022-11-24T08:23:40.079Z,3
2022-11-24T08:24:43.048Z,3
2022-11-24T08:25:45.265Z,3
2022-11-24T08:26:48.872Z,3
2022-11-24T08:27:51.645Z,3
2022-11-24T08:28:55.363Z,3
2022-11-24T08:29:58.984Z,3
2022-11-24T08:31:01.836Z,3
2022-11-24T08:32:05.182Z,3.1
2022-11-24T08:33:07.966Z,3
2022-11-24T08:34:10.385Z,3.1
2022-11-24T08:35:16.814Z,3.1
2022-11-24T08:36:19.824Z,3.1
2022-11-24T08:37:22.902Z,3.1
2022-11-24T08:38:26.120Z,3.1
2022-11-24T08:39:29.917Z,3
2022-11-24T08:40:33.624Z,3.1
2022-11-24T08:41:37.316Z,3.1
2022-11-24T08:42:40.367Z,3.1
2022-11-24T08:43:43.636Z,3.2
2022-11-24T08:44:46.875Z,3.1
2022-11-24T08:45:50.300Z,3
2022-11-24T08:46:53.441Z,3.1
2022-11-24T08:47:56.568Z,3.1
2022-11-24T08:48:59.985Z,3.1
2022-11-24T08:50:03.435Z,3.1
2022-11-24T08:51:06.835Z,3.1
2022-11-24T08:52:10.170Z,3.1
2022-11-24T08:53:12.839Z,3.1
2022-11-24T08:54:16.045Z,3.1
2022-11-24T08:55:20.180Z,3.1
2022-11-24T08:56:23.316Z,3.1
2022-11-24T08:57:26.810Z,3.1
2022-11-24T08:58:29.591Z,3.1
2022-11-24T08:59:32.316Z,3.1
2022-11-24T09:00:34.829Z,3.2
2022-11-24T09:01:38.479Z,3.2
2022-11-24T09:02:41.570Z,3.2
2022-11-24T09:03:52.950Z,3.2
2022-11-24T09:04:56.533Z,3.3
2022-11-24T09:05:59.341Z,3.2
2022-11-24T09:07:02.475Z,3.2
2022-11-24T09:08:05.898Z,3.3
2022-11-24T09:09:09.915Z,3.3
2022-11-24T09:10:13.010Z,3.3
2022-11-24T09:11:16.736Z,3.3
2022-11-24T09:12:19.812Z,3.3
2022-11-24T09:13:23.156Z,3.3
2022-11-24T09:14:27.155Z,3.3
2022-11-24T09:15:29.952Z,3.3
2022-11-24T09:16:33.503Z,3.3
2022-11-24T09:17:37.006Z,3.3
2022-11-24T09:18:40.055Z,3.4
2022-11-24T09:19:44.042Z,3.4
2022-11-24T09:20:46.822Z,3.4
2022-11-24T09:21:50.082Z,3.5
2022-11-24T09:22:53.208Z,3.5
2022-11-24T09:23:56.577Z,3.5
2022-11-24T09:25:00.004Z,3.4
2022-11-24T09:26:03.385Z,3.4
2022-11-24T09:27:07.570Z,3.5
2022-11-24T09:28:10.594Z,3.5
2022-11-24T09:29:13.293Z,3.5
2022-11-24T09:30:16.544Z,3.5
2022-11-24T09:31:20.368Z,3.5
2022-11-24T09:32:23.789Z,3.5
2022-11-24T09:33:27.311Z,3.6
2022-11-24T09:34:30.556Z,3.5
2022-11-24T09:35:33.614Z,3.6
2022-11-24T09:36:36.446Z,3.5
2022-11-24T09:37:40.164Z,3.6
2022-11-24T09:38:43.234Z,3.6
2022-11-24T09:39:46.244Z,3.7
2022-11-24T09:40:48.997Z,4
2022-11-24T09:41:53.207Z,4.2
2022-11-24T09:42:57.312Z,4.3
2022-11-24T09:44:00.217Z,4.2
2022-11-24T09:45:03.280Z,4.2
2022-11-24T09:46:08.816Z,4.1
2022-11-24T09:47:12.320Z,4.1
2022-11-24T09:48:15.467Z,4.1
2022-11-24T09:49:18.798Z,4
2022-11-24T09:50:21.669Z,4
2022-11-24T09:51:24.804Z,4
2022-11-24T09:52:28.113Z,3.9
2022-11-24T09:53:30.812Z,3.9
2022-11-24T09:54:34.216Z,3.9
2022-11-24T09:55:37.229Z,3.9
2022-11-24T09:56:40.403Z,4
2022-11-24T09:57:43.570Z,4
2022-11-24T09:58:46.788Z,4
2022-11-24T09:59:49.208Z,4
2022-11-24T10:00:51.690Z,3.9
2022-11-24T10:01:55.082Z,3.9
2022-11-24T10:02:58.551Z,4
2022-11-24T10:04:08.355Z,4
2022-11-24T10:05:11.168Z,4
2022-11-24T10:06:14.309Z,4
2022-11-24T10:07:18.100Z,4
2022-11-24T10:08:21.230Z,4
2022-11-24T10:09:23.383Z,4.1
2022-11-24T10:10:27.559Z,4
2022-11-24T10:11:30.630Z,4.1
2022-11-24T10:12:33.646Z,4.1
2022-11-24T10:13:36.627Z,4.1
2022-11-24T10:14:40.416Z,4.1
2022-11-24T10:15:44.076Z,4.2
2022-11-24T10:16:47.635Z,4.2
2022-11-24T10:17:50.727Z,4.2
2022-11-24T10:18:54.322Z,4.2
2022-11-24T10:19:58.007Z,4.3
2022-11-24T10:21:01.113Z,4.2
2022-11-24T10:22:04.557Z,4.2
2022-11-24T10:23:07.046Z,4.2
2022-11-24T10:24:09.738Z,4.2
2022-11-24T10:25:12.859Z,4.2
2022-11-24T10:26:16.108Z,4.3
2022-11-24T10:27:19.558Z,4.3
2022-11-24T10:28:23.275Z,4.3
2022-11-24T10:29:27.006Z,4.3
2022-11-24T10:30:31.118Z,4.3
2022-11-24T10:31:35.497Z,4.4
2022-11-24T10:32:39.005Z,4.4
2022-11-24T10:33:42.159Z,4.4
2022-11-24T10:34:45.314Z,4.4
2022-11-24T10:35:48.011Z,4.4
2022-11-24T10:36:51.665Z,4.5
2022-11-24T10:37:54.796Z,4.4
2022-11-24T10:38:57.864Z,4.4
2022-11-24T10:40:02.079Z,4.5
2022-11-24T10:41:05.520Z,4.5
2022-11-24T10:42:09.223Z,4.5
2022-11-24T10:43:11.786Z,4.5
2022-11-24T10:44:14.772Z,4.5
2022-11-24T10:45:18.074Z,4.5
2022-11-24T10:46:22.534Z,4.6
2022-11-24T10:47:26.173Z,4.6
2022-11-24T10:48:29.160Z,4.6
2022-11-24T10:49:33.569Z,4.7
2022-11-24T10:50:37.813Z,4.7
2022-11-24T10:51:41.023Z,4.7
2022-11-24T10:52:44.169Z,4.7
2022-11-24T10:53:47.231Z,4.7
2022-11-24T10:54:50.563Z,4.7
2022-11-24T10:55:54.159Z,4.8
2022-11-24T10:56:58.218Z,4.7
2022-11-24T10:58:01.504Z,4.8
2022-11-24T10:59:04.384Z,4.7
2022-11-24T11:00:07.563Z,4.8
2022-11-24T11:01:11.721Z,4.8
2022-11-24T11:02:16.032Z,4.8
2022-11-24T11:03:19.660Z,4.8
2022-11-24T11:04:23.324Z,4.8
2022-11-24T11:05:26.040Z,4.9
2022-11-24T11:06:29.658Z,4.9
2022-11-24T11:07:32.513Z,4.9
2022-11-24T11:08:35.657Z,4.9
2022-11-24T11:09:38.950Z,5
2022-11-24T11:10:41.993Z,5
2022-11-24T11:11:45.996Z,5
2022-11-24T11:12:49.426Z,5
2022-11-24T11:13:52.403Z,5.1
2022-11-24T11:14:55.915Z,5.1
2022-11-24T11:15:59.908Z,5.1
2022-11-24T11:17:03.607Z,5.1
2022-11-24T11:18:07.840Z,5.1
2022-11-24T11:20:01.912Z,5.1
2022-11-24T11:21:06.790Z,5.2
2022-11-24T11:22:09.865Z,5.2
2022-11-24T11:23:12.918Z,5.2
2022-11-24T11:24:16.614Z,5.2
2022-11-24T11:25:19.312Z,5.2
2022-11-24T11:26:22.996Z,5.2
2022-11-24T11:27:26.422Z,5.3
2022-11-24T11:28:29.853Z,5.3
2022-11-24T11:31:22.360Z,5.3
2022-11-24T11:34:10.573Z,5.3
2022-11-24T11:35:33.221Z,5.3
2022-11-24T11:36:36.843Z,5.3
2022-11-24T11:37:40.177Z,5.3
2022-11-24T11:38:43.345Z,5.3
2022-11-24T11:39:50.815Z,5.4
2022-11-24T11:40:53.614Z,5.4
2022-11-24T11:41:55.753Z,5.4
2022-11-24T11:43:05.910Z,5.3
2022-11-24T11:44:08.972Z,5.4
2022-11-24T11:45:11.751Z,5.4
2022-11-24T11:46:17.007Z,5.4
2022-11-24T11:47:20.274Z,5.4
2022-11-24T11:48:22.934Z,5.4
2022-11-24T11:49:26.784Z,5.4
2022-11-24T11:50:31.183Z,5.4
2022-11-24T11:51:35.509Z,5.5
2022-11-24T11:52:38.599Z,5.4
2022-11-24T11:53:41.375Z,5.5
2022-11-24T11:54:44.360Z,5.5
2022-11-24T11:55:51.658Z,5.5
2022-11-24T11:56:54.785Z,5.6
2022-11-24T11:57:57.556Z,5.5
2022-11-24T11:59:01.268Z,5.5
2022-11-24T12:00:04.594Z,5.4
2022-11-24T12:01:07.983Z,5.4
2022-11-24T12:02:11.105Z,5.4
2022-11-24T12:03:15.693Z,5.4
2022-11-24T12:04:19.280Z,5.5
2022-11-24T12:05:22.898Z,5.5
2022-11-24T12:06:26.257Z,5.5
2022-11-24T12:07:30.748Z,5.6
2022-11-24T12:09:22.080Z,5.5
2022-11-24T12:10:25.072Z,5.6
2022-11-24T12:11:28.083Z,5.6
2022-11-24T12:12:31.719Z,5.5
2022-11-24T12:13:35.128Z,5.5
2022-11-24T12:14:41.361Z,5.6
2022-11-24T12:15:44.758Z,5.6
2022-11-24T12:16:48.622Z,5.6
2022-11-24T12:17:51.043Z,5.6
2022-11-24T12:19:00.406Z,5.6
2022-11-24T12:20:03.758Z,5.6
2022-11-24T12:21:06.510Z,5.6
2022-11-24T12:22:10.170Z,5.6
2022-11-24T12:23:13.610Z,5.6
2022-11-24T12:24:16.734Z,5.6
2022-11-24T12:25:19.353Z,5.6
2022-11-24T12:26:22.789Z,5.6
2022-11-24T12:27:25.506Z,5.6
2022-11-24T12:28:29.188Z,5.6
2022-11-24T12:29:33.614Z,5.6
2022-11-24T12:30:37.000Z,5.6
2022-11-24T12:31:40.719Z,5.6
2022-11-24T12:32:43.983Z,5.7
2022-11-24T12:34:02.000Z,5.7
2022-11-24T12:35:05.324Z,5.7
2022-11-24T12:36:08.806Z,5.7
2022-11-24T12:37:12.447Z,5.7
2022-11-24T12:38:15.798Z,5.7
2022-11-24T12:39:18.969Z,5.7
2022-11-24T12:40:21.741Z,5.7
2022-11-24T12:41:55.260Z,5.7
2022-11-24T12:42:58.607Z,5.6
2022-11-24T12:44:01.599Z,5.7
2022-11-24T12:45:05.205Z,5.7
2022-11-24T12:46:18.751Z,5.7
2022-11-24T12:47:22.178Z,5.7
2022-11-24T12:48:25.283Z,5.8
2022-11-24T12:49:28.921Z,5.8
2022-11-24T12:50:31.773Z,5.8
2022-11-24T12:51:35.816Z,5.8
2022-11-24T12:52:38.942Z,5.8
2022-11-24T12:53:42.121Z,5.8
2022-11-24T12:54:44.928Z,5.8
2022-11-24T12:55:47.973Z,5.8
2022-11-24T12:56:51.244Z,5.8
2022-11-24T12:57:54.755Z,5.8
2022-11-24T12:58:57.884Z,5.8
2022-11-24T13:00:00.864Z,5.8
2022-11-24T13:01:04.281Z,5.7
2022-11-24T13:02:07.868Z,5.7
2022-11-24T13:03:11.986Z,5.7
2022-11-24T13:04:15.056Z,5.7
2022-11-24T13:05:19.061Z,5.8
2022-11-24T13:06:22.662Z,5.8
2022-11-24T13:07:26.124Z,5.8
2022-11-24T13:08:29.842Z,5.8
2022-11-24T13:09:33.556Z,5.9
2022-11-24T13:11:06.703Z,5.9
2022-11-24T13:12:10.066Z,5.9
2022-11-24T13:13:13.173Z,6
2022-11-24T13:14:16.687Z,6
2022-11-24T13:16:35.512Z,6
2022-11-24T13:25:17.867Z,6.1
2022-11-24T13:26:21.516Z,6.1
2022-11-24T13:27:25.600Z,6.1
2022-11-24T13:29:26.158Z,6.1
2022-11-24T13:30:29.160Z,6.2
2022-11-24T13:31:32.542Z,6.2
2022-11-24T13:32:35.641Z,6.2
2022-11-24T13:33:38.692Z,6.2
2022-11-24T13:34:42.002Z,6.2
2022-11-24T13:35:45.486Z,6.3
2022-11-24T13:36:48.838Z,6.2
2022-11-24T13:37:51.367Z,6.2
2022-11-24T13:38:54.900Z,6.2
2022-11-24T13:39:57.949Z,6.2
2022-11-24T13:41:30.408Z,6.2
2022-11-24T13:42:45.372Z,6.2
2022-11-24T13:43:48.446Z,6.1
2022-11-24T13:44:51.508Z,6.2
2022-11-24T13:45:54.943Z,6.2
2022-11-24T13:47:08.198Z,6.2
2022-11-24T13:48:11.640Z,6.2
2022-11-24T13:49:14.630Z,6.2
2022-11-24T13:50:22.925Z,6.3
2022-11-24T13:51:26.004Z,6.3
2022-11-24T13:52:28.878Z,6.2
2022-11-24T13:53:31.930Z,6.2
2022-11-24T13:54:36.688Z,6.2
2022-11-24T13:55:39.823Z,6.2
2022-11-24T13:56:43.560Z,6.2
2022-11-24T13:57:46.787Z,6.1
2022-11-24T13:58:50.140Z,6.2
2022-11-24T13:59:52.929Z,6.2
2022-11-24T14:01:00.045Z,6.2
2022-11-24T14:02:03.668Z,6.1
2022-11-24T14:03:07.168Z,6.2
2022-11-24T14:04:40.075Z,6.1
2022-11-24T14:05:43.431Z,6.1
2022-11-24T14:06:46.413Z,6.1
2022-11-24T14:07:49.959Z,6.1
2022-11-24T14:08:53.404Z,6.1
2022-11-24T14:09:56.470Z,6.1
2022-11-24T14:11:00.191Z,6.2
2022-11-24T14:12:04.131Z,6.2
2022-11-24T14:13:07.490Z,6.2
2022-11-24T14:14:11.753Z,6.1
2022-11-24T14:15:20.334Z,6.1
2022-11-24T14:16:23.901Z,6
2022-11-24T14:17:27.332Z,6
2022-11-24T14:18:30.454Z,6
2022-11-24T14:19:34.279Z,6.1
2022-11-24T14:20:36.976Z,6.1
2022-11-24T14:21:39.759Z,6.1
2022-11-24T14:22:42.564Z,6.1
2022-11-24T14:23:45.269Z,6.2
2022-11-24T14:24:49.672Z,6.2
2022-11-24T14:25:52.927Z,6.2
2022-11-24T14:26:55.976Z,6.2
2022-11-24T14:28:00.285Z,6.2
2022-11-24T14:29:03.734Z,6.2
2022-11-24T14:30:06.998Z,6.2
2022-11-24T14:31:10.100Z,6.2
2022-11-24T14:32:12.823Z,6.1
2022-11-24T14:33:15.399Z,6.2
2022-11-24T14:34:18.189Z,6.2
2022-11-24T14:35:21.944Z,6.2
2022-11-24T14:36:25.102Z,6.2
2022-11-24T14:37:28.111Z,6.2
2022-11-24T14:38:31.553Z,6.2
2022-11-24T14:39:34.527Z,6.2
2022-11-24T14:40:37.805Z,6.2
2022-11-24T14:41:40.508Z,6.2
2022-11-24T14:42:43.031Z,6.2
2022-11-24T14:43:47.195Z,6.2
2022-11-24T14:44:51.199Z,6.2
2022-11-24T14:45:53.722Z,6.2
2022-11-24T14:46:57.352Z,6.1
2022-11-24T14:48:00.457Z,6.1
2022-11-24T14:49:03.432Z,6.1
2022-11-24T14:50:07.380Z,6.2
2022-11-24T14:51:10.556Z,6.2
2022-11-24T14:52:13.654Z,6.2
2022-11-24T14:53:16.638Z,6.2
2022-11-24T14:54:22.341Z,6.2
2022-11-24T14:55:24.916Z,6.1
2022-11-24T14:56:28.627Z,6.1
2022-11-24T14:57:31.921Z,6
2022-11-24T14:58:43.685Z,6
2022-11-24T14:59:47.536Z,6
2022-11-24T15:00:51.353Z,6
2022-11-24T15:01:55.183Z,5.9
2022-11-24T15:02:58.340Z,5.9
2022-11-24T15:04:03.882Z,5.9
2022-11-24T15:05:17.847Z,5.9
2022-11-24T15:06:21.109Z,5.8
2022-11-24T15:07:24.773Z,5.8